sensor_id;sensor_type;location;lat;lon;timestamp;pressure;altitude;pressure_sealevel;temperature;humidity
76605;BME280;65496;50.978;16.998;2023-03-23T00:00:53;99519.34;;;22.10;36.25
76605;BME280;65496;50.978;16.998;2023-03-23T00:03:21;99521.34;;;22.13;36.48
76605;BME280;65496;50.978;16.998;2023-03-23T00:05:47;99521.34;;;22.13;36.46
76605;BME280;65496;50.978;16.998;2023-03-23T00:08:17;99517.81;;;22.12;36.25
76605;BME280;65496;50.978;16.998;2023-03-23T00:10:50;99517.81;;;22.12;36.18
76605;BME280;65496;50.978;16.998;2023-03-23T00:13:24;99515.78;;;22.09;36.30
76605;BME280;65496;50.978;16.998;2023-03-23T00:15:50;99523.34;;;22.12;36.30
76605;BME280;65496;50.978;16.998;2023-03-23T00:18:18;99528.41;;;22.10;36.27
76605;BME280;65496;50.978;16.998;2023-03-23T00:20:55;99525.28;;;22.12;36.27
76605;BME280;65496;50.978;16.998;2023-03-23T00:23:24;99521.31;;;22.09;36.16
76605;BME280;65496;50.978;16.998;2023-03-23T00:25:53;99530.00;;;22.11;35.97
76605;BME280;65496;50.978;16.998;2023-03-23T00:28:23;99522.53;;;22.12;36.22
76605;BME280;65496;50.978;16.998;2023-03-23T00:31:03;99520.56;;;22.12;36.06
76605;BME280;65496;50.978;16.998;2023-03-23T00:33:31;99519.78;;;22.12;36.35
76605;BME280;65496;50.978;16.998;2023-03-23T00:36:10;99525.28;;;22.12;36.12
76605;BME280;65496;50.978;16.998;2023-03-23T00:38:38;99520.56;;;22.12;35.99
76605;BME280;65496;50.978;16.998;2023-03-23T00:41:05;99518.19;;;22.11;36.15
76605;BME280;65496;50.978;16.998;2023-03-23T00:43:32;99514.25;;;22.12;36.17
76605;BME280;65496;50.978;16.998;2023-03-23T00:46:01;99507.94;;;22.11;36.28
76605;BME280;65496;50.978;16.998;2023-03-23T00:48:29;99508.72;;;22.08;36.06
76605;BME280;65496;50.978;16.998;2023-03-23T00:50:55;99511.88;;;22.10;35.98
76605;BME280;65496;50.978;16.998;2023-03-23T00:53:22;99509.91;;;22.11;36.19
76605;BME280;65496;50.978;16.998;2023-03-23T00:55:48;99502.44;;;22.11;36.02
76605;BME280;65496;50.978;16.998;2023-03-23T00:58:15;99502.00;;;22.09;36.09
76605;BME280;65496;50.978;16.998;2023-03-23T01:00:42;99489.81;;;22.10;36.03
76605;BME280;65496;50.978;16.998;2023-03-23T01:03:09;99482.72;;;22.09;35.99
76605;BME280;65496;50.978;16.998;2023-03-23T01:05:39;99488.97;;;22.06;36.02
76605;BME280;65496;50.978;16.998;2023-03-23T01:08:06;99497.28;;;22.10;36.00
76605;BME280;65496;50.978;16.998;2023-03-23T01:10:33;99493.34;;;22.07;36.19
76605;BME280;65496;50.978;16.998;2023-03-23T01:13:00;99497.28;;;22.10;36.00
76605;BME280;65496;50.978;16.998;2023-03-23T01:15:27;99494.94;;;22.08;36.13
76605;BME280;65496;50.978;16.998;2023-03-23T01:17:53;99487.44;;;22.09;36.18
76605;BME280;65496;50.978;16.998;2023-03-23T01:20:20;99489.41;;;22.08;36.10
76605;BME280;65496;50.978;16.998;2023-03-23T01:22:46;99494.94;;;22.08;35.99
76605;BME280;65496;50.978;16.998;2023-03-23T01:25:13;99498.06;;;22.07;35.94
76605;BME280;65496;50.978;16.998;2023-03-23T01:27:40;99484.22;;;22.03;36.08
76605;BME280;65496;50.978;16.998;2023-03-23T01:30:08;99498.84;;;22.07;36.31
76605;BME280;65496;50.978;16.998;2023-03-23T01:32:34;99489.78;;;22.07;35.96
76605;BME280;65496;50.978;16.998;2023-03-23T01:35:00;99486.22;;;22.06;36.20
76605;BME280;65496;50.978;16.998;2023-03-23T01:37:27;99480.34;;;22.08;35.99
76605;BME280;65496;50.978;16.998;2023-03-23T01:39:55;99481.16;;;22.08;36.10
76605;BME280;65496;50.978;16.998;2023-03-23T01:42:23;99479.56;;;22.07;35.90
76605;BME280;65496;50.978;16.998;2023-03-23T01:47:20;99475.63;;;22.08;35.95
76605;BME280;65496;50.978;16.998;2023-03-23T01:49:49;99475.63;;;22.08;35.85
76605;BME280;65496;50.978;16.998;2023-03-23T01:52:25;99481.16;;;22.08;35.99
76605;BME280;65496;50.978;16.998;2023-03-23T01:54:55;99462.19;;;22.03;36.06
76605;BME280;65496;50.978;16.998;2023-03-23T01:57:24;99458.66;;;22.06;36.31
76605;BME280;65496;50.978;16.998;2023-03-23T01:59:53;99461.41;;;22.06;36.01
76605;BME280;65496;50.978;16.998;2023-03-23T02:02:22;99463.38;;;22.06;35.96
76605;BME280;65496;50.978;16.998;2023-03-23T02:04:50;99446.44;;;22.04;35.83
76605;BME280;65496;50.978;16.998;2023-03-23T02:07:20;99449.59;;;22.06;35.98
76605;BME280;65496;50.978;16.998;2023-03-23T02:09:46;99447.63;;;22.06;35.86
76605;BME280;65496;50.978;16.998;2023-03-23T02:12:12;99444.88;;;22.06;36.01
76605;BME280;65496;50.978;16.998;2023-03-23T02:14:38;99443.28;;;22.05;36.02
76605;BME280;65496;50.978;16.998;2023-03-23T02:17:08;99440.53;;;22.05;35.80
76605;BME280;65496;50.978;16.998;2023-03-23T02:25:42;99430.69;;;22.04;35.99
76605;BME280;65496;50.978;16.998;2023-03-23T02:28:40;99427.94;;;22.04;35.92
76605;BME280;65496;50.978;16.998;2023-03-23T02:34:17;99424.38;;;22.04;36.05
76605;BME280;65496;50.978;16.998;2023-03-23T02:36:50;99428.72;;;22.05;36.01
76605;BME280;65496;50.978;16.998;2023-03-23T02:39:55;99440.53;;;22.05;36.10
76605;BME280;65496;50.978;16.998;2023-03-23T02:42:16;99430.28;;;22.06;36.06
76605;BME280;65496;50.978;16.998;2023-03-23T02:44:45;99423.22;;;22.05;35.95
76605;BME280;65496;50.978;16.998;2023-03-23T02:47:26;99434.25;;;22.05;36.17
76605;BME280;65496;50.978;16.998;2023-03-23T02:49:54;99429.50;;;22.05;35.80
76605;BME280;65496;50.978;16.998;2023-03-23T02:52:26;99430.25;;;22.02;35.76
76605;BME280;65496;50.978;16.998;2023-03-23T02:54:54;99430.69;;;22.04;35.88
76605;BME280;65496;50.978;16.998;2023-03-23T02:57:23;99437.75;;;22.05;35.71
76605;BME280;65496;50.978;16.998;2023-03-23T02:59:50;99440.13;;;22.03;36.05
76605;BME280;65496;50.978;16.998;2023-03-23T03:02:25;99441.31;;;22.06;35.91
76605;BME280;65496;50.978;16.998;2023-03-23T03:10:31;99436.22;;;22.04;36.03
76605;BME280;65496;50.978;16.998;2023-03-23T03:13:09;99440.91;;;22.04;36.07
76605;BME280;65496;50.978;16.998;2023-03-23T03:18:46;99432.66;;;22.04;36.07
76605;BME280;65496;50.978;16.998;2023-03-23T03:21:14;99429.91;;;22.04;35.84
76605;BME280;65496;50.978;16.998;2023-03-23T03:23:43;99423.59;;;22.03;36.00
76605;BME280;65496;50.978;16.998;2023-03-23T03:26:12;99416.13;;;22.04;36.09
76605;BME280;65496;50.978;16.998;2023-03-23T03:28:44;99414.16;;;22.04;35.79
76605;BME280;65496;50.978;16.998;2023-03-23T03:31:15;99407.00;;;22.00;36.09
76605;BME280;65496;50.978;16.998;2023-03-23T03:33:43;99403.13;;;22.04;35.84
76605;BME280;65496;50.978;16.998;2023-03-23T03:36:15;99406.69;;;22.05;35.88
76605;BME280;65496;50.978;16.998;2023-03-23T03:38:47;99408.25;;;22.06;35.86
76605;BME280;65496;50.978;16.998;2023-03-23T03:41:14;99418.47;;;22.05;35.88
76605;BME280;65496;50.978;16.998;2023-03-23T03:43:41;99406.28;;;22.06;36.05
76605;BME280;65496;50.978;16.998;2023-03-23T03:46:07;99395.22;;;22.03;35.84
76605;BME280;65496;50.978;16.998;2023-03-23T03:48:33;99410.19;;;22.05;36.02
76605;BME280;65496;50.978;16.998;2023-03-23T03:50:59;99398.00;;;22.06;36.01
76605;BME280;65496;50.978;16.998;2023-03-23T03:53:26;99417.31;;;22.06;35.93
76605;BME280;65496;50.978;16.998;2023-03-23T03:55:53;99409.03;;;22.06;35.83
76605;BME280;65496;50.978;16.998;2023-03-23T03:58:22;99398.81;;;22.07;35.69
76605;BME280;65496;50.978;16.998;2023-03-23T04:00:49;99402.34;;;22.07;35.83
76605;BME280;65496;50.978;16.998;2023-03-23T04:03:15;99403.53;;;22.06;35.86
76605;BME280;65496;50.978;16.998;2023-03-23T04:05:42;99406.28;;;22.06;35.92
76605;BME280;65496;50.978;16.998;2023-03-23T04:08:11;99407.06;;;22.07;35.84
76605;BME280;65496;50.978;16.998;2023-03-23T04:10:37;99402.34;;;22.07;35.93
76605;BME280;65496;50.978;16.998;2023-03-23T04:13:03;99402.34;;;22.07;35.87
76605;BME280;65496;50.978;16.998;2023-03-23T04:15:30;99407.06;;;22.07;35.77
76605;BME280;65496;50.978;16.998;2023-03-23T04:17:56;99399.59;;;22.07;35.83
76605;BME280;65496;50.978;16.998;2023-03-23T04:20:23;99400.72;;;22.03;35.86
76605;BME280;65496;50.978;16.998;2023-03-23T04:22:50;99403.53;;;22.06;36.03
76605;BME280;65496;50.978;16.998;2023-03-23T04:25:19;99403.53;;;22.06;35.73
76605;BME280;65496;50.978;16.998;2023-03-23T04:27:51;99400.78;;;22.06;35.86
76605;BME280;65496;50.978;16.998;2023-03-23T04:30:22;99407.88;;;22.07;35.88
76605;BME280;65496;50.978;16.998;2023-03-23T04:32:49;99403.53;;;22.06;35.71
76605;BME280;65496;50.978;16.998;2023-03-23T04:35:23;99405.91;;;22.08;35.77
76605;BME280;65496;50.978;16.998;2023-03-23T04:37:51;99401.19;;;22.08;35.90
76605;BME280;65496;50.978;16.998;2023-03-23T04:40:18;99406.28;;;22.06;35.82
76605;BME280;65496;50.978;16.998;2023-03-23T04:42:45;99399.97;;;22.06;35.73
76605;BME280;65496;50.978;16.998;2023-03-23T04:45:13;99395.66;;;22.05;35.92
76605;BME280;65496;50.978;16.998;2023-03-23T04:47:40;99389.75;;;22.06;35.86
76605;BME280;65496;50.978;16.998;2023-03-23T04:50:09;99389.75;;;22.06;35.86
76605;BME280;65496;50.978;16.998;2023-03-23T04:52:36;99392.50;;;22.06;35.77
76605;BME280;65496;50.978;16.998;2023-03-23T04:55:12;99389.75;;;22.06;35.78
76605;BME280;65496;50.978;16.998;2023-03-23T04:57:38;99388.16;;;22.05;35.95
76605;BME280;65496;50.978;16.998;2023-03-23T05:00:06;99395.25;;;22.06;35.75
76605;BME280;65496;50.978;16.998;2023-03-23T05:02:38;99391.69;;;22.06;35.71
76605;BME280;65496;50.978;16.998;2023-03-23T05:05:08;99388.94;;;22.06;35.69
76605;BME280;65496;50.978;16.998;2023-03-23T05:07:36;99383.06;;;22.07;35.85
76605;BME280;65496;50.978;16.998;2023-03-23T05:10:04;99383.06;;;22.07;35.74
76605;BME280;65496;50.978;16.998;2023-03-23T05:12:31;99379.50;;;22.07;35.65
76605;BME280;65496;50.978;16.998;2023-03-23T05:14:57;99380.31;;;22.07;35.84
76605;BME280;65496;50.978;16.998;2023-03-23T05:17:23;99385.03;;;22.07;35.94
76605;BME280;65496;50.978;16.998;2023-03-23T05:19:50;99385.81;;;22.07;35.81
76605;BME280;65496;50.978;16.998;2023-03-23T05:22:16;99379.50;;;22.07;35.64
76605;BME280;65496;50.978;16.998;2023-03-23T05:24:43;99376.75;;;22.07;35.88
76605;BME280;65496;50.978;16.998;2023-03-23T05:27:09;99381.88;;;22.05;35.67
76605;BME280;65496;50.978;16.998;2023-03-23T05:29:37;99375.97;;;22.06;35.76
76605;BME280;65496;50.978;16.998;2023-03-23T05:32:07;99378.72;;;22.06;35.84
76605;BME280;65496;50.978;16.998;2023-03-23T05:34:34;99366.09;;;22.05;35.78
76605;BME280;65496;50.978;16.998;2023-03-23T05:37:01;99370.44;;;22.06;35.74
76605;BME280;65496;50.978;16.998;2023-03-23T05:39:30;99373.19;;;22.06;35.78
76605;BME280;65496;50.978;16.998;2023-03-23T05:41:57;99366.09;;;22.05;35.64
76605;BME280;65496;50.978;16.998;2023-03-23T05:44:23;99365.69;;;22.03;35.98
76605;BME280;65496;50.978;16.998;2023-03-23T05:46:49;99378.72;;;22.06;35.78
76605;BME280;65496;50.978;16.998;2023-03-23T05:49:16;99368.47;;;22.07;35.97
76605;BME280;65496;50.978;16.998;2023-03-23T05:51:43;99370.41;;;22.03;36.03
76605;BME280;65496;50.978;16.998;2023-03-23T05:54:12;99373.19;;;22.06;35.92
76605;BME280;65496;50.978;16.998;2023-03-23T05:56:38;99372.84;;;22.08;35.97
76605;BME280;65496;50.978;16.998;2023-03-23T05:59:04;99365.72;;;22.07;36.13
76605;BME280;65496;50.978;16.998;2023-03-23T06:01:31;99369.28;;;22.07;36.11
76605;BME280;65496;50.978;16.998;2023-03-23T06:03:58;99366.53;;;22.07;36.13
76605;BME280;65496;50.978;16.998;2023-03-23T06:06:28;99366.88;;;22.06;36.25
76605;BME280;65496;50.978;16.998;2023-03-23T06:08:58;99359.06;;;22.08;36.49
76605;BME280;65496;50.978;16.998;2023-03-23T06:11:27;99361.81;;;22.08;36.41
76605;BME280;65496;50.978;16.998;2023-03-23T06:13:54;99360.63;;;22.09;36.46
76605;BME280;65496;50.978;16.998;2023-03-23T06:16:20;99359.84;;;22.08;36.27
76605;BME280;65496;50.978;16.998;2023-03-23T06:18:46;99359.03;;;22.04;36.28
76605;BME280;65496;50.978;16.998;2023-03-23T06:21:14;99361.78;;;22.04;36.26
76605;BME280;65496;50.978;16.998;2023-03-23T06:23:41;99365.34;;;22.08;36.31
76605;BME280;65496;50.978;16.998;2023-03-23T06:26:12;99368.84;;;22.05;36.32
76605;BME280;65496;50.978;16.998;2023-03-23T06:28:40;99360.19;;;22.03;36.09
76605;BME280;65496;50.978;16.998;2023-03-23T06:31:06;99368.13;;;22.08;36.29
76605;BME280;65496;50.978;16.998;2023-03-23T06:33:35;99347.53;;;21.99;36.38
76605;BME280;65496;50.978;16.998;2023-03-23T06:36:02;99359.06;;;22.08;36.25
76605;BME280;65496;50.978;16.998;2023-03-23T06:38:28;99359.84;;;22.08;36.22
76605;BME280;65496;50.978;16.998;2023-03-23T06:40:55;99358.25;;;22.07;36.09
76605;BME280;65496;50.978;16.998;2023-03-23T06:43:23;99367.31;;;22.08;36.12
76605;BME280;65496;50.978;16.998;2023-03-23T06:45:50;99351.91;;;22.03;36.26
76605;BME280;65496;50.978;16.998;2023-03-23T06:48:17;99353.50;;;22.04;35.94
76605;BME280;65496;50.978;16.998;2023-03-23T06:50:44;99365.72;;;22.07;36.00
76605;BME280;65496;50.978;16.998;2023-03-23T06:53:11;99359.06;;;22.08;36.05
76605;BME280;65496;50.978;16.998;2023-03-23T06:55:38;99358.22;;;22.04;36.09
76605;BME280;65496;50.978;16.998;2023-03-23T06:58:05;99359.06;;;22.08;36.19
76605;BME280;65496;50.978;16.998;2023-03-23T07:00:32;99373.63;;;22.08;36.13
76605;BME280;65496;50.978;16.998;2023-03-23T07:02:59;99369.28;;;22.07;36.05
76605;BME280;65496;50.978;16.998;2023-03-23T07:05:25;99370.06;;;22.08;36.10
76605;BME280;65496;50.978;16.998;2023-03-23T07:07:52;99366.91;;;22.09;36.22
76605;BME280;65496;50.978;16.998;2023-03-23T07:10:18;99365.34;;;22.08;36.12
76605;BME280;65496;50.978;16.998;2023-03-23T07:12:45;99364.97;;;22.10;36.14
76605;BME280;65496;50.978;16.998;2023-03-23T07:15:11;99346.47;;;22.10;36.18
76605;BME280;65496;50.978;16.998;2023-03-23T07:17:39;99357.16;;;22.15;36.21
76605;BME280;65496;50.978;16.998;2023-03-23T07:20:05;99363.06;;;22.17;36.31
76605;BME280;65496;50.978;16.998;2023-03-23T07:22:32;99356.38;;;22.18;36.16
76605;BME280;65496;50.978;16.998;2023-03-23T07:24:59;99356.81;;;22.20;36.31
76605;BME280;65496;50.978;16.998;2023-03-23T07:27:25;99354.44;;;22.22;36.42
76605;BME280;65496;50.978;16.998;2023-03-23T07:29:51;99353.66;;;22.22;36.39
76605;BME280;65496;50.978;16.998;2023-03-23T07:32:18;99363.09;;;22.24;36.27
76605;BME280;65496;50.978;16.998;2023-03-23T07:34:44;99362.34;;;22.24;36.56
76605;BME280;65496;50.978;16.998;2023-03-23T07:37:11;99365.09;;;22.24;36.52
76605;BME280;65496;50.978;16.998;2023-03-23T07:39:37;99363.47;;;22.19;37.04
76605;BME280;65496;50.978;16.998;2023-03-23T07:42:03;99374.94;;;22.25;36.81
76605;BME280;65496;50.978;16.998;2023-03-23T07:44:29;99360.75;;;22.23;36.66
76605;BME280;65496;50.978;16.998;2023-03-23T07:46:55;99359.59;;;22.24;36.91
76605;BME280;65496;50.978;16.998;2023-03-23T07:49:22;99367.06;;;22.23;36.76
76605;BME280;65496;50.978;16.998;2023-03-23T07:51:48;99354.84;;;22.24;37.02
76605;BME280;65496;50.978;16.998;2023-03-23T07:54:14;99357.59;;;22.24;36.80
76605;BME280;65496;50.978;16.998;2023-03-23T07:56:42;99354.47;;;22.26;36.56
76605;BME280;65496;50.978;16.998;2023-03-23T07:59:08;99355.25;;;22.26;36.63
76605;BME280;65496;50.978;16.998;2023-03-23T08:01:36;99353.66;;;22.25;36.21
76605;BME280;65496;50.978;16.998;2023-03-23T08:04:02;99352.50;;;22.26;36.54
76605;BME280;65496;50.978;16.998;2023-03-23T08:06:28;99348.94;;;22.26;36.67
76605;BME280;65496;50.978;16.998;2023-03-23T08:08:54;99356.06;;;22.27;36.45
76605;BME280;65496;50.978;16.998;2023-03-23T08:11:21;99343.81;;;22.24;36.72
76605;BME280;65496;50.978;16.998;2023-03-23T08:13:47;99353.31;;;22.27;36.58
76605;BME280;65496;50.978;16.998;2023-03-23T08:16:14;99348.16;;;22.25;36.65
76605;BME280;65496;50.978;16.998;2023-03-23T08:18:40;99341.44;;;22.23;36.62
76605;BME280;65496;50.978;16.998;2023-03-23T08:21:07;99348.59;;;22.27;36.54
76605;BME280;65496;50.978;16.998;2023-03-23T08:23:36;99327.25;;;22.24;36.34
76605;BME280;65496;50.978;16.998;2023-03-23T08:26:07;99321.34;;;22.22;36.60
76605;BME280;65496;50.978;16.998;2023-03-23T08:28:34;99316.66;;;22.26;36.50
76605;BME280;65496;50.978;16.998;2023-03-23T08:31:06;99332.03;;;22.27;36.51
76605;BME280;65496;50.978;16.998;2023-03-23T08:33:33;99325.31;;;22.28;36.62
76605;BME280;65496;50.978;16.998;2023-03-23T08:36:00;99323.75;;;22.27;36.58
76605;BME280;65496;50.978;16.998;2023-03-23T08:38:27;99329.66;;;22.29;36.51
76605;BME280;65496;50.978;16.998;2023-03-23T08:40:58;99337.94;;;22.29;36.48
76605;BME280;65496;50.978;16.998;2023-03-23T08:43:24;99334.81;;;22.31;36.35
76605;BME280;65496;50.978;16.998;2023-03-23T08:45:51;99332.84;;;22.31;36.51
76605;BME280;65496;50.978;16.998;2023-03-23T08:48:17;99341.91;;;22.32;36.60
76605;BME280;65496;50.978;16.998;2023-03-23T08:50:44;99346.25;;;22.33;36.61
76605;BME280;65496;50.978;16.998;2023-03-23T08:53:10;99350.97;;;22.32;36.71
76605;BME280;65496;50.978;16.998;2023-03-23T08:55:37;99349.00;;;22.33;36.71
76605;BME280;65496;50.978;16.998;2023-03-23T08:58:04;99357.28;;;22.33;36.77
76605;BME280;65496;50.978;16.998;2023-03-23T09:00:30;99343.47;;;22.29;36.91
76605;BME280;65496;50.978;16.998;2023-03-23T09:02:56;99349.00;;;22.33;36.85
76605;BME280;65496;50.978;16.998;2023-03-23T09:05:25;99355.69;;;22.32;36.80
76605;BME280;65496;50.978;16.998;2023-03-23T09:07:54;99355.31;;;22.33;36.96
76605;BME280;65496;50.978;16.998;2023-03-23T09:10:21;99360.44;;;22.31;36.66
76605;BME280;65496;50.978;16.998;2023-03-23T09:12:48;99356.91;;;22.35;36.79
76605;BME280;65496;50.978;16.998;2023-03-23T09:15:16;99358.06;;;22.33;36.83
76605;BME280;65496;50.978;16.998;2023-03-23T09:17:48;99358.84;;;22.30;36.67
76605;BME280;65496;50.978;16.998;2023-03-23T09:20:19;99352.53;;;22.30;36.51
76605;BME280;65496;50.978;16.998;2023-03-23T09:22:49;99363.22;;;22.35;36.55
76605;BME280;65496;50.978;16.998;2023-03-23T09:25:19;99347.41;;;22.32;36.35
76605;BME280;65496;50.978;16.998;2023-03-23T09:27:52;99354.53;;;22.33;36.65
76605;BME280;65496;50.978;16.998;2023-03-23T09:30:24;99364.00;;;22.36;36.56
76605;BME280;65496;50.978;16.998;2023-03-23T09:32:51;99354.16;;;22.35;36.57
76605;BME280;65496;50.978;16.998;2023-03-23T09:35:19;99347.47;;;22.36;36.68
76605;BME280;65496;50.978;16.998;2023-03-23T09:37:47;99364.00;;;22.36;36.71
76605;BME280;65496;50.978;16.998;2023-03-23T09:40:19;99360.06;;;22.37;36.76
76605;BME280;65496;50.978;16.998;2023-03-23T09:49:37;99353.38;;;22.38;36.44
76605;BME280;65496;50.978;16.998;2023-03-23T09:51:50;99366.38;;;22.37;36.61
76605;BME280;65496;50.978;16.998;2023-03-23T09:54:36;99363.63;;;22.37;36.81
76605;BME280;65496;50.978;16.998;2023-03-23T09:57:04;99364.78;;;22.36;36.76
76605;BME280;65496;50.978;16.998;2023-03-23T10:03:06;99364.03;;;22.39;36.60
76605;BME280;65496;50.978;16.998;2023-03-23T10:05:40;99363.25;;;22.39;36.54
76605;BME280;65496;50.978;16.998;2023-03-23T10:08:16;99357.72;;;22.39;36.88
76605;BME280;65496;50.978;16.998;2023-03-23T10:16:25;99360.47;;;22.39;36.53
76605;BME280;65496;50.978;16.998;2023-03-23T10:19:12;99354.16;;;22.35;36.66
76605;BME280;65496;50.978;16.998;2023-03-23T10:21:47;99357.72;;;22.39;36.61
76605;BME280;65496;50.978;16.998;2023-03-23T10:24:20;99347.84;;;22.38;36.82
76605;BME280;65496;50.978;16.998;2023-03-23T10:27:19;99351.03;;;22.40;36.69
76605;BME280;65496;50.978;16.998;2023-03-23T10:29:55;99341.56;;;22.41;36.71
76605;BME280;65496;50.978;16.998;2023-03-23T10:32:43;99356.16;;;22.41;36.82
76605;BME280;65496;50.978;16.998;2023-03-23T10:35:21;99351.44;;;22.42;36.71
76605;BME280;65496;50.978;16.998;2023-03-23T10:37:53;99357.75;;;22.42;36.74
76605;BME280;65496;50.978;16.998;2023-03-23T10:40:25;99358.53;;;22.43;36.74
76605;BME280;65496;50.978;16.998;2023-03-23T10:42:53;99347.50;;;22.43;36.97
76605;BME280;65496;50.978;16.998;2023-03-23T10:45:26;99356.94;;;22.42;36.91
76605;BME280;65496;50.978;16.998;2023-03-23T10:47:58;99360.09;;;22.44;36.76
76605;BME280;65496;50.978;16.998;2023-03-23T10:50:29;99356.59;;;22.43;36.79
76605;BME280;65496;50.978;16.998;2023-03-23T10:52:58;99364.06;;;22.43;36.76
76605;BME280;65496;50.978;16.998;2023-03-23T10:55:39;99363.66;;;22.44;36.86
76605;BME280;65496;50.978;16.998;2023-03-23T10:58:29;99370.38;;;22.43;36.74
76605;BME280;65496;50.978;16.998;2023-03-23T11:01:03;99366.03;;;22.42;36.43
76605;BME280;65496;50.978;16.998;2023-03-23T11:03:43;99368.38;;;22.44;36.68
76605;BME280;65496;50.978;16.998;2023-03-23T11:06:28;99375.09;;;22.43;36.92
76605;BME280;65496;50.978;16.998;2023-03-23T11:09:02;99367.22;;;22.45;36.53
76605;BME280;65496;50.978;16.998;2023-03-23T11:11:41;99369.16;;;22.41;36.66
76605;BME280;65496;50.978;16.998;2023-03-23T11:14:29;99369.97;;;22.45;36.50
76605;BME280;65496;50.978;16.998;2023-03-23T11:17:00;99375.50;;;22.45;36.88
76605;BME280;65496;50.978;16.998;2023-03-23T11:19:30;99368.00;;;22.42;36.80
76605;BME280;65496;50.978;16.998;2023-03-23T11:24:34;99374.31;;;22.46;36.54
76605;BME280;65496;50.978;16.998;2023-03-23T11:27:01;99376.66;;;22.44;36.73
76605;BME280;65496;50.978;16.998;2023-03-23T11:29:30;99379.84;;;22.46;36.74
76605;BME280;65496;50.978;16.998;2023-03-23T11:34:31;99376.28;;;22.45;36.68
76605;BME280;65496;50.978;16.998;2023-03-23T11:37:05;99374.72;;;22.48;36.68
76605;BME280;65496;50.978;16.998;2023-03-23T11:39:34;99381.44;;;22.47;36.74
76605;BME280;65496;50.978;16.998;2023-03-23T11:42:11;99372.72;;;22.45;36.64
76605;BME280;65496;50.978;16.998;2023-03-23T11:44:44;99367.63;;;22.43;36.62
76605;BME280;65496;50.978;16.998;2023-03-23T11:47:32;99373.16;;;22.47;36.35
76605;BME280;65496;50.978;16.998;2023-03-23T11:50:50;99373.94;;;22.47;36.63
76605;BME280;65496;50.978;16.998;2023-03-23T11:53:33;99376.28;;;22.45;36.57
76605;BME280;65496;50.978;16.998;2023-03-23T11:56:25;99375.50;;;22.45;36.79
76605;BME280;65496;50.978;16.998;2023-03-23T11:58:54;99388.50;;;22.48;36.79
76605;BME280;65496;50.978;16.998;2023-03-23T12:01:29;99379.47;;;22.47;36.54
76605;BME280;65496;50.978;16.998;2023-03-23T12:19:24;99387.75;;;22.47;36.47
76605;BME280;65496;50.978;16.998;2023-03-23T12:21:40;99384.19;;;22.47;36.49
76605;BME280;65496;50.978;16.998;2023-03-23T12:38:46;99377.88;;;22.46;36.54
76605;BME280;65496;50.978;16.998;2023-03-23T12:41:27;99385.00;;;22.47;36.75
76605;BME280;65496;50.978;16.998;2023-03-23T12:44:01;99379.47;;;22.47;36.69
76605;BME280;65496;50.978;16.998;2023-03-23T12:49:22;99377.09;;;22.46;36.51
76605;BME280;65496;50.978;16.998;2023-03-23T12:52:16;99378.28;;;22.48;36.64
76605;BME280;65496;50.978;16.998;2023-03-23T12:54:53;99377.47;;;22.48;36.50
76605;BME280;65496;50.978;16.998;2023-03-23T13:00:25;99373.16;;;22.47;36.58
76605;BME280;65496;50.978;16.998;2023-03-23T13:06:00;99368.00;;;22.45;36.51
76605;BME280;65496;50.978;16.998;2023-03-23T13:08:43;99377.47;;;22.48;36.71
76605;BME280;65496;50.978;16.998;2023-03-23T13:11:18;99372.75;;;22.48;36.61
76605;BME280;65496;50.978;16.998;2023-03-23T13:13:52;99373.56;;;22.49;36.55
76605;BME280;65496;50.978;16.998;2023-03-23T13:16:47;99383.78;;;22.48;36.31
76605;BME280;65496;50.978;16.998;2023-03-23T13:22:55;99381.03;;;22.48;36.37
76605;BME280;65496;50.978;16.998;2023-03-23T13:25:02;99371.97;;;22.48;36.52
76605;BME280;65496;50.978;16.998;2023-03-23T13:27:30;99377.47;;;22.48;36.48
76605;BME280;65496;50.978;16.998;2023-03-23T13:29:57;99374.72;;;22.48;36.34
76605;BME280;65496;50.978;16.998;2023-03-23T13:32:35;99372.75;;;22.48;36.32
76605;BME280;65496;50.978;16.998;2023-03-23T13:35:04;99372.75;;;22.48;36.11
76605;BME280;65496;50.978;16.998;2023-03-23T13:37:32;99366.44;;;22.48;36.37
76605;BME280;65496;50.978;16.998;2023-03-23T13:42:51;99365.28;;;22.49;36.29
76605;BME280;65496;50.978;16.998;2023-03-23T13:47:44;99376.31;;;22.49;36.13
76605;BME280;65496;50.978;16.998;2023-03-23T13:55:39;99366.88;;;22.50;36.13
76605;BME280;65496;50.978;16.998;2023-03-23T14:03:32;99369.63;;;22.50;36.37
76605;BME280;65496;50.978;16.998;2023-03-23T14:10:58;99368.47;;;22.51;36.45
76605;BME280;65496;50.978;16.998;2023-03-23T14:13:33;99365.69;;;22.51;36.34
76605;BME280;65496;50.978;16.998;2023-03-23T14:16:04;99365.69;;;22.51;36.57
76605;BME280;65496;50.978;16.998;2023-03-23T14:18:37;99362.13;;;22.47;36.44
76605;BME280;65496;50.978;16.998;2023-03-23T14:21:05;99369.63;;;22.50;36.42
76605;BME280;65496;50.978;16.998;2023-03-23T14:23:33;99365.28;;;22.49;36.67
76605;BME280;65496;50.978;16.998;2023-03-23T14:26:02;99364.09;;;22.50;36.40
76605;BME280;65496;50.978;16.998;2023-03-23T14:28:38;99363.31;;;22.49;36.46
76605;BME280;65496;50.978;16.998;2023-03-23T14:31:15;99364.50;;;22.52;36.48
76605;BME280;65496;50.978;16.998;2023-03-23T14:33:43;99359.38;;;22.50;36.42
76605;BME280;65496;50.978;16.998;2023-03-23T14:36:09;99367.25;;;22.52;36.53
76605;BME280;65496;50.978;16.998;2023-03-23T14:38:36;99358.16;;;22.48;36.60
76605;BME280;65496;50.978;16.998;2023-03-23T14:41:05;99362.53;;;22.52;36.67
76605;BME280;65496;50.978;16.998;2023-03-23T14:43:34;99362.53;;;22.52;36.48
76605;BME280;65496;50.978;16.998;2023-03-23T14:46:06;99351.47;;;22.49;36.45
76605;BME280;65496;50.978;16.998;2023-03-23T14:48:34;99363.75;;;22.51;36.59